Time,TemperatureF,DewpointF,PressureIn,WindDirection,WindDirectionDegrees,WindSpeedMPH,WindSpeedGustMPH,Humidity,HourlyPrecipIn,Conditions,Clouds,dailyrainin,SolarRadiationWatts/m^2,SoftwareType,DateUTC
2013-11-16 00:00:00,66.5,61.5,25.90,East,101,1.0,1.0,84,0.00,,,0.00,0,Wunderground v.1.15,2013-11-16 06:00:00,
2013-11-16 00:05:00,66.5,61.5,25.90,East,101,0.0,1.0,84,0.00,,,0.00,0,Wunderground v.1.15,2013-11-16 06:05:00,
2013-11-16 00:10:00,66.5,61.5,25.90,East,101,0.0,0.0,84,0.00,,,0.00,0,Wunderground v.1.15,2013-11-16 06:10:00,
2013-11-16 00:15:00,66.5,61.8,25.90,East,101,0.0,0.0,85,0.00,,,0.00,0,Wunderground v.1.15,2013-11-16 06:15:00,
2013-11-16 00:20:00,66.3,61.7,25.90,East,101,0.0,0.0,85,0.00,,,0.00,0,Wunderground v.1.15,2013-11-16 06:20:00,
2013-11-16 00:30:00,66.2,61.9,25.90,East,101,0.0,0.0,86,0.00,,,0.00,0,Wunderground v.1.15,2013-11-16 06:30:00,
2013-11-16 00:40:00,66.0,61.7,25.90,East,101,0.0,0.0,86,0.00,,,0.00,0,Wunderground v.1.15,2013-11-16 06:40:00,
2013-11-16 00:50:00,65.9,61.3,25.89,East,101,0.0,0.0,85,0.00,,,0.00,0,Wunderground v.1.15,2013-11-16 06:50:00,
2013-11-16 01:00:00,66.2,61.6,25.89,ENE,74,0.0,0.0,85,0.00,,,0.00,0,Wunderground v.1.15,2013-11-16 07:00:00,
2013-11-16 01:05:00,66.2,61.2,25.89,ENE,74,0.0,0.0,84,0.00,,,0.00,0,Wunderground v.1.15,2013-11-16 07:05:00,
2013-11-16 01:15:00,66.0,61.4,25.89,NNE,13,0.0,1.0,85,0.00,,,0.00,0,Wunderground v.1.15,2013-11-16 07:15:00,
2013-11-16 01:20:00,65.9,61.3,25.89,NNE,13,0.0,0.0,85,0.00,,,0.00,0,Wunderground v.1.15,2013-11-16 07:20:00,
2013-11-16 01:30:00,65.7,61.4,25.88,NNE,13,0.0,0.0,86,0.00,,,0.00,0,Wunderground v.1.15,2013-11-16 07:30:00,
2013-11-16 01:35:00,65.5,61.2,25.88,NNE,13,0.0,0.0,86,0.00,,,0.00,0,Wunderground v.1.15,2013-11-16 07:35:00,
2013-11-16 01:45:00,65.2,60.9,25.88,NNE,13,0.0,0.0,86,0.00,,,0.00,0,Wunderground v.1.15,2013-11-16 07:45:00,
2013-11-16 01:50:00,65.1,61.1,25.88,NNE,13,0.0,0.0,87,0.00,,,0.00,0,Wunderground v.1.15,2013-11-16 07:50:00,
2013-11-16 02:00:00,64.7,61.1,25.88,NNE,15,0.0,0.0,88,0.00,,,0.00,0,Wunderground v.1.15,2013-11-16 08:00:00,
2013-11-16 02:05:00,64.7,61.1,25.88,NNE,15,0.0,0.0,88,0.00,,,0.00,0,Wunderground v.1.15,2013-11-16 08:05:00,
2013-11-16 02:10:00,64.6,61.0,25.88,South,171,0.0,1.0,88,0.00,,,0.00,0,Wunderground v.1.15,2013-11-16 08:10:00,
2013-11-16 02:20:00,64.6,61.0,25.88,South,171,1.0,1.0,88,0.00,,,0.00,0,Wunderground v.1.15,2013-11-16 08:20:00,
2013-11-16 02:25:00,64.6,61.0,25.87,South,171,1.0,1.0,88,0.00,,,0.00,0,Wunderground v.1.15,2013-11-16 08:25:00,
2013-11-16 02:35:00,64.6,60.6,25.87,South,171,0.0,0.0,87,0.00,,,0.00,0,Wunderground v.1.15,2013-11-16 08:35:00,
2013-11-16 02:45:00,64.4,60.4,25.87,South,171,0.0,0.0,87,0.00,,,0.00,0,Wunderground v.1.15,2013-11-16 08:45:00,
2013-11-16 02:50:00,64.4,60.4,25.87,South,171,0.0,0.0,87,0.00,,,0.00,0,Wunderground v.1.15,2013-11-16 08:50:00,
2013-11-16 03:00:00,64.1,60.5,25.87,South,171,0.0,0.0,88,0.00,,,0.00,0,Wunderground v.1.15,2013-11-16 09:00:00,
2013-11-16 03:10:00,64.1,60.5,25.87,East,91,0.0,0.0,88,0.00,,,0.00,0,Wunderground v.1.15,2013-11-16 09:10:00,
2013-11-16 03:20:00,64.1,60.5,25.87,East,91,0.0,0.0,88,0.00,,,0.00,0,Wunderground v.1.15,2013-11-16 09:20:00,
2013-11-16 03:25:00,63.9,60.6,25.87,East,91,0.0,0.0,89,0.00,,,0.00,0,Wunderground v.1.15,2013-11-16 09:25:00,
2013-11-16 03:35:00,63.9,60.6,25.87,ESE,119,0.0,1.0,89,0.00,,,0.00,0,Wunderground v.1.15,2013-11-16 09:35:00,
2013-11-16 03:40:00,63.9,60.3,25.87,ESE,119,0.0,2.0,88,0.00,,,0.00,0,Wunderground v.1.15,2013-11-16 09:40:00,
2013-11-16 03:50:00,63.9,60.3,25.87,SSE,161,1.0,2.0,88,0.00,,,0.00,0,Wunderground v.1.15,2013-11-16 09:50:00,
2013-11-16 04:00:00,63.9,60.3,25.87,SSE,161,0.0,0.0,88,0.00,,,0.00,0,Wunderground v.1.15,2013-11-16 10:00:00,
2013-11-16 04:05:00,63.8,60.2,25.87,SSE,161,0.0,0.0,88,0.00,,,0.00,0,Wunderground v.1.15,2013-11-16 10:05:00,
2013-11-16 04:15:00,63.6,60.0,25.87,East,84,0.0,0.0,88,0.00,,,0.00,0,Wunderground v.1.15,2013-11-16 10:15:00,
2013-11-16 04:20:00,63.6,60.3,25.87,East,84,0.0,0.0,89,0.00,,,0.00,0,Wunderground v.1.15,2013-11-16 10:20:00,
2013-11-16 04:30:00,63.6,60.0,25.87,SSW,192,0.0,0.0,88,0.00,,,0.00,0,Wunderground v.1.15,2013-11-16 10:30:00,
2013-11-16 04:40:00,63.8,60.5,25.88,SSW,192,0.0,0.0,89,0.00,,,0.00,0,Wunderground v.1.15,2013-11-16 10:40:00,
2013-11-16 04:50:00,64.1,60.5,25.89,SSE,153,1.0,2.0,88,0.00,,,0.00,0,Wunderground v.1.15,2013-11-16 10:50:00,
2013-11-16 04:55:00,64.1,60.5,25.89,SSE,153,1.0,2.0,88,0.00,,,0.00,0,Wunderground v.1.15,2013-11-16 10:55:00,
2013-11-16 05:00:00,64.2,60.2,25.90,ENE,65,1.0,1.0,87,0.00,,,0.00,0,Wunderground v.1.15,2013-11-16 11:00:00,
2013-11-16 05:10:00,64.4,60.4,25.90,SE,130,2.0,2.0,87,0.00,,,0.00,0,Wunderground v.1.15,2013-11-16 11:10:00,
2013-11-16 05:15:00,64.4,60.4,25.90,SSE,150,1.0,2.0,87,0.00,,,0.00,0,Wunderground v.1.15,2013-11-16 11:15:00,
2013-11-16 05:20:00,64.4,60.4,25.90,SSE,150,0.0,2.0,87,0.00,,,0.00,0,Wunderground v.1.15,2013-11-16 11:20:00,
2013-11-16 05:30:00,64.2,60.2,25.91,SSW,197,1.0,2.0,87,0.00,,,0.00,0,Wunderground v.1.15,2013-11-16 11:30:00,
2013-11-16 05:35:00,64.2,60.2,25.90,NE,40,1.0,1.0,87,0.00,,,0.00,5,Wunderground v.1.15,2013-11-16 11:35:00,
2013-11-16 05:45:00,64.2,60.6,25.91,NE,40,0.0,0.0,88,0.00,,,0.00,12,Wunderground v.1.15,2013-11-16 11:45:00,
2013-11-16 05:50:00,64.1,60.5,25.91,NE,40,0.0,0.0,88,0.00,,,0.00,16,Wunderground v.1.15,2013-11-16 11:50:00,
2013-11-16 05:55:00,63.9,60.3,25.91,NE,40,0.0,0.0,88,0.00,,,0.00,19,Wunderground v.1.15,2013-11-16 11:55:00,
2013-11-16 06:05:00,63.9,60.6,25.91,NE,41,0.0,0.0,89,0.00,,,0.00,28,Wunderground v.1.15,2013-11-16 12:05:00,
2013-11-16 06:15:00,63.8,60.5,25.91,SSE,149,0.0,4.0,89,0.00,,,0.00,39,Wunderground v.1.15,2013-11-16 12:15:00,
2013-11-16 06:20:00,63.9,60.6,25.92,ESE,115,1.0,1.0,89,0.00,,,0.00,44,Wunderground v.1.15,2013-11-16 12:20:00,
2013-11-16 06:30:00,64.1,60.5,25.92,SSE,155,2.0,2.0,88,0.00,,,0.00,56,Wunderground v.1.15,2013-11-16 12:30:00,
2013-11-16 06:40:00,64.7,60.4,25.93,SSE,157,2.0,2.0,86,0.00,,,0.00,69,Wunderground v.1.15,2013-11-16 12:40:00,
2013-11-16 06:45:00,64.7,60.4,25.92,ENE,68,1.0,2.0,86,0.00,,,0.00,81,Wunderground v.1.15,2013-11-16 12:45:00,
2013-11-16 06:50:00,64.9,60.6,25.92,ESE,111,1.0,1.0,86,0.00,,,0.00,98,Wunderground v.1.15,2013-11-16 12:50:00,
2013-11-16 06:55:00,65.2,60.6,25.93,ESE,111,1.0,1.0,85,0.00,,,0.00,97,Wunderground v.1.15,2013-11-16 12:55:00,
2013-11-16 07:05:00,65.9,60.9,25.93,SE,141,1.0,2.0,84,0.00,,,0.00,118,Wunderground v.1.15,2013-11-16 13:05:00,
2013-11-16 07:10:00,66.2,61.2,25.93,SSE,161,2.0,2.0,84,0.00,,,0.00,116,Wunderground v.1.15,2013-11-16 13:10:00,
2013-11-16 07:20:00,67.3,61.3,25.93,SSE,161,0.0,2.0,81,0.00,,,0.00,315,Wunderground v.1.15,2013-11-16 13:20:00,
2013-11-16 07:25:00,68.2,61.4,25.94,SE,137,1.0,2.0,79,0.00,,,0.00,269,Wunderground v.1.15,2013-11-16 13:25:00,
2013-11-16 07:30:00,69.0,61.9,25.94,SE,137,1.0,2.0,78,0.00,,,0.00,192,Wunderground v.1.15,2013-11-16 13:30:00,
2013-11-16 07:40:00,70.0,61.7,25.95,SSE,161,2.0,2.0,75,0.00,,,0.00,316,Wunderground v.1.15,2013-11-16 13:40:00,
2013-11-16 07:45:00,70.5,61.4,25.95,SSE,161,1.0,1.0,73,0.00,,,0.00,221,Wunderground v.1.15,2013-11-16 13:45:00,
2013-11-16 07:55:00,70.8,61.7,25.96,SSE,160,1.0,2.0,73,0.00,,,0.00,167,Wunderground v.1.15,2013-11-16 13:55:00,
2013-11-16 08:00:00,71.0,61.9,25.96,SSE,157,1.0,1.0,73,0.00,,,0.00,230,Wunderground v.1.15,2013-11-16 14:00:00,
2013-11-16 08:05:00,71.0,61.5,25.96,SE,146,3.0,4.0,72,0.00,,,0.00,283,Wunderground v.1.15,2013-11-16 14:05:00,
2013-11-16 08:15:00,71.0,61.9,25.96,SSE,163,3.0,4.0,73,0.00,,,0.00,158,Wunderground v.1.15,2013-11-16 14:15:00,
2013-11-16 08:20:00,71.0,62.3,25.96,SE,134,2.0,2.0,74,0.00,,,0.00,149,Wunderground v.1.15,2013-11-16 14:20:00,
2013-11-16 08:25:00,70.7,62.4,25.96,SE,134,1.0,2.0,75,0.00,,,0.00,134,Wunderground v.1.15,2013-11-16 14:25:00,
2013-11-16 08:30:00,70.3,62.4,25.96,NE,40,1.0,1.0,76,0.00,,,0.00,77,Wunderground v.1.15,2013-11-16 14:30:00,
2013-11-16 08:40:00,70.2,62.6,25.96,SSE,152,1.0,1.0,77,0.00,,,0.00,111,Wunderground v.1.15,2013-11-16 14:40:00,
2013-11-16 08:45:00,70.0,62.1,25.96,SSE,152,0.0,0.0,76,0.00,,,0.00,251,Wunderground v.1.15,2013-11-16 14:45:00,
2013-11-16 08:55:00,70.8,62.9,25.96,SSE,151,0.0,0.0,76,0.00,,,0.00,199,Wunderground v.1.15,2013-11-16 14:55:00,
2013-11-16 09:00:00,71.4,62.7,25.96,SSE,152,0.0,0.0,74,0.00,,,0.00,221,Wunderground v.1.15,2013-11-16 15:00:00,
2013-11-16 09:10:00,71.5,62.4,25.95,SSE,152,0.0,0.0,73,0.00,,,0.00,346,Wunderground v.1.15,2013-11-16 15:10:00,
2013-11-16 09:15:00,71.5,62.4,25.95,NE,46,0.0,1.0,73,0.00,,,0.00,339,Wunderground v.1.15,2013-11-16 15:15:00,
2013-11-16 09:20:00,71.7,61.8,25.95,SSE,155,1.0,1.0,71,0.00,,,0.00,309,Wunderground v.1.15,2013-11-16 15:20:00,
2013-11-16 09:30:00,72.0,62.5,25.95,West,281,0.0,0.0,72,0.00,,,0.00,306,Wunderground v.1.15,2013-11-16 15:30:00,
2013-11-16 09:35:00,72.6,63.1,25.95,North,349,1.0,4.0,72,0.00,,,0.00,367,Wunderground v.1.15,2013-11-16 15:35:00,
2013-11-16 09:45:00,72.4,63.3,25.94,North,360,2.0,3.0,73,0.00,,,0.00,366,Wunderground v.1.15,2013-11-16 15:45:00,
2013-11-16 09:50:00,72.4,63.3,25.94,NE,34,2.0,2.0,73,0.00,,,0.00,322,Wunderground v.1.15,2013-11-16 15:50:00,
2013-11-16 09:55:00,72.2,63.4,25.94,West,261,2.0,3.0,74,0.00,,,0.00,204,Wunderground v.1.15,2013-11-16 15:55:00,
2013-11-16 10:05:00,71.2,63.2,25.94,ESE,123,4.0,4.0,76,0.00,,,0.00,207,Wunderground v.1.15,2013-11-16 16:05:00,
2013-11-16 10:10:00,71.0,63.1,25.94,North,355,3.0,5.0,76,0.00,,,0.00,216,Wunderground v.1.15,2013-11-16 16:10:00,
2013-11-16 10:15:00,70.8,62.9,25.94,East,79,3.0,5.0,76,0.00,,,0.00,123,Wunderground v.1.15,2013-11-16 16:15:00,
2013-11-16 10:25:00,70.3,62.7,25.93,East,91,5.0,5.0,77,0.00,,,0.00,93,Wunderground v.1.15,2013-11-16 16:25:00,
2013-11-16 10:30:00,70.2,63.0,25.93,NE,34,4.0,4.0,78,0.00,,,0.00,90,Wunderground v.1.15,2013-11-16 16:30:00,
2013-11-16 10:35:00,69.8,63.0,25.93,ENE,71,3.0,4.0,79,0.00,,,0.00,91,Wunderground v.1.15,2013-11-16 16:35:00,
2013-11-16 10:40:00,69.7,63.3,25.93,NNW,336,4.0,4.0,80,0.00,,,0.00,158,Wunderground v.1.15,2013-11-16 16:40:00,
2013-11-16 10:50:00,69.8,63.3,25.93,WSW,252,3.0,3.0,80,0.00,,,0.00,188,Wunderground v.1.15,2013-11-16 16:50:00,
2013-11-16 11:00:00,70.2,63.4,25.93,ENE,67,4.0,4.0,79,0.00,,,0.00,209,Wunderground v.1.15,2013-11-16 17:00:00,
2013-11-16 11:05:00,70.5,63.7,25.92,West,278,3.0,4.0,79,0.00,,,0.00,364,Wunderground v.1.15,2013-11-16 17:05:00,
2013-11-16 11:15:00,70.7,63.5,25.92,East,84,4.0,13.0,78,0.00,,,0.00,213,Wunderground v.1.15,2013-11-16 17:15:00,
2013-11-16 11:20:00,70.5,63.7,25.92,SE,139,5.0,10.0,79,0.00,,,0.00,178,Wunderground v.1.15,2013-11-16 17:20:00,
2013-11-16 11:25:00,70.5,63.7,25.92,NW,313,5.0,10.0,79,0.00,,,0.00,146,Wunderground v.1.15,2013-11-16 17:25:00,
2013-11-16 11:30:00,70.3,63.5,25.92,ENE,67,4.0,4.0,79,0.00,,,0.00,93,Wunderground v.1.15,2013-11-16 17:30:00,
2013-11-16 11:40:00,70.3,63.5,25.92,NNW,342,3.0,4.0,79,0.00,,,0.00,169,Wunderground v.1.15,2013-11-16 17:40:00,
2013-11-16 11:45:00,70.3,63.8,25.91,East,90,3.0,3.0,80,0.00,,,0.00,200,Wunderground v.1.15,2013-11-16 17:45:00,
2013-11-16 11:50:00,70.3,63.5,25.91,North,360,4.0,6.0,79,0.00,,,0.00,169,Wunderground v.1.15,2013-11-16 17:50:00,
2013-11-16 12:00:00,69.8,63.3,25.91,North,355,5.0,5.0,80,0.00,,,0.00,192,Wunderground v.1.15,2013-11-16 18:00:00,
2013-11-16 12:05:00,70.0,63.5,25.90,NE,56,5.0,5.0,80,0.00,,,0.00,332,Wunderground v.1.15,2013-11-16 18:05:00,
2013-11-16 12:10:00,70.2,63.0,25.90,North,360,5.0,5.0,78,0.00,,,0.00,237,Wunderground v.1.15,2013-11-16 18:10:00,
2013-11-16 12:20:00,70.5,63.3,25.90,East,101,4.0,6.0,78,0.00,,,0.00,364,Wunderground v.1.15,2013-11-16 18:20:00,
2013-11-16 12:25:00,70.8,63.6,25.90,NNE,33,4.0,4.0,78,0.00,,,0.00,253,Wunderground v.1.15,2013-11-16 18:25:00,
2013-11-16 12:30:00,70.8,63.2,25.90,ENE,57,4.0,7.0,77,0.00,,,0.00,302,Wunderground v.1.15,2013-11-16 18:30:00,
2013-11-16 12:40:00,71.0,63.4,25.89,NNW,337,4.0,5.0,77,0.00,,,0.00,281,Wunderground v.1.15,2013-11-16 18:40:00,
2013-11-16 12:45:00,71.0,63.4,25.89,NE,51,4.0,5.0,77,0.00,,,0.00,276,Wunderground v.1.15,2013-11-16 18:45:00,
2013-11-16 12:55:00,70.8,63.2,25.88,North,355,4.0,5.0,77,0.00,,,0.00,236,Wunderground v.1.15,2013-11-16 18:55:00,
2013-11-16 13:00:00,71.0,63.4,25.88,NNW,331,2.0,10.0,77,0.00,,,0.00,200,Wunderground v.1.15,2013-11-16 19:00:00,
2013-11-16 13:10:00,70.8,63.6,25.88,NNE,30,3.0,6.0,78,0.00,,,0.00,202,Wunderground v.1.15,2013-11-16 19:10:00,
2013-11-16 13:15:00,70.5,63.3,25.88,NNE,26,4.0,6.0,78,0.00,,,0.00,302,Wunderground v.1.15,2013-11-16 19:15:00,
2013-11-16 13:25:00,70.5,63.3,25.87,NNE,24,5.0,5.0,78,0.00,,,0.00,369,Wunderground v.1.15,2013-11-16 19:25:00,
2013-11-16 13:30:00,71.0,63.4,25.87,ESE,105,4.0,5.0,77,0.00,,,0.00,357,Wunderground v.1.15,2013-11-16 19:30:00,
2013-11-16 13:35:00,70.8,63.2,25.87,North,5,4.0,4.0,77,0.00,,,0.00,381,Wunderground v.1.15,2013-11-16 19:35:00,
2013-11-16 13:45:00,70.7,63.5,25.88,NE,43,5.0,11.0,78,0.00,,,0.00,292,Wunderground v.1.15,2013-11-16 19:45:00,
2013-11-16 13:55:00,70.0,63.2,25.88,NNW,332,4.0,11.0,79,0.00,,,0.00,218,Wunderground v.1.15,2013-11-16 19:55:00,
2013-11-16 14:05:00,69.8,64.1,25.87,NE,45,4.0,17.0,82,0.00,,,0.00,237,Wunderground v.1.15,2013-11-16 20:05:00,
2013-11-16 14:10:00,69.7,63.6,25.87,ENE,67,4.0,4.0,81,0.00,,,0.00,186,Wunderground v.1.15,2013-11-16 20:10:00,
2013-11-16 14:15:00,69.7,63.3,25.87,NE,44,4.0,5.0,80,0.00,,,0.00,230,Wunderground v.1.15,2013-11-16 20:15:00,
2013-11-16 14:20:00,69.5,63.4,25.87,East,82,4.0,8.0,81,0.00,,,0.00,250,Wunderground v.1.15,2013-11-16 20:20:00,
2013-11-16 14:30:00,69.8,63.3,25.86,NE,44,3.0,9.0,80,0.00,,,0.00,158,Wunderground v.1.15,2013-11-16 20:30:00,
2013-11-16 14:40:00,69.8,63.3,25.86,NE,38,4.0,4.0,80,0.00,,,0.00,185,Wunderground v.1.15,2013-11-16 20:40:00,
2013-11-16 14:50:00,69.8,63.0,25.86,NNW,344,5.0,7.0,79,0.00,,,0.00,269,Wunderground v.1.15,2013-11-16 20:50:00,
2013-11-16 14:55:00,69.8,62.6,25.86,NNE,30,5.0,11.0,78,0.00,,,0.00,257,Wunderground v.1.15,2013-11-16 20:55:00,
2013-11-16 15:00:00,70.0,62.8,25.86,West,270,4.0,4.0,78,0.00,,,0.00,246,Wunderground v.1.15,2013-11-16 21:00:00,
2013-11-16 15:05:00,70.2,63.0,25.86,NW,323,4.0,4.0,78,0.00,,,0.00,195,Wunderground v.1.15,2013-11-16 21:05:00,
2013-11-16 15:10:00,70.0,62.8,25.86,NE,52,4.0,4.0,78,0.00,,,0.00,148,Wunderground v.1.15,2013-11-16 21:10:00,
2013-11-16 15:20:00,69.7,63.3,25.86,NNW,347,3.0,3.0,80,0.00,,,0.00,113,Wunderground v.1.15,2013-11-16 21:20:00,
2013-11-16 15:25:00,69.5,63.1,25.86,WNW,301,3.0,3.0,80,0.00,,,0.00,107,Wunderground v.1.15,2013-11-16 21:25:00,
2013-11-16 15:30:00,69.5,63.4,25.86,East,92,3.0,6.0,81,0.00,,,0.00,105,Wunderground v.1.15,2013-11-16 21:30:00,
2013-11-16 15:40:00,69.2,62.8,25.86,SE,136,4.0,4.0,80,0.00,,,0.00,81,Wunderground v.1.15,2013-11-16 21:40:00,
2013-11-16 15:45:00,69.3,62.9,25.87,NNE,24,3.0,6.0,80,0.00,,,0.00,77,Wunderground v.1.15,2013-11-16 21:45:00,
2013-11-16 15:55:00,69.2,62.8,25.86,SSE,155,4.0,4.0,80,0.00,,,0.00,69,Wunderground v.1.15,2013-11-16 21:55:00,
2013-11-16 16:00:00,69.2,62.8,25.86,ENE,69,3.0,3.0,80,0.00,,,0.00,49,Wunderground v.1.15,2013-11-16 22:00:00,
2013-11-16 16:10:00,69.3,62.9,25.86,ESE,121,1.0,4.0,80,0.00,,,0.00,46,Wunderground v.1.15,2013-11-16 22:10:00,
2013-11-16 16:15:00,69.2,62.4,25.86,NNW,335,2.0,2.0,79,0.00,,,0.00,49,Wunderground v.1.15,2013-11-16 22:15:00,
2013-11-16 16:20:00,69.3,62.9,25.86,North,360,2.0,3.0,80,0.00,,,0.00,51,Wunderground v.1.15,2013-11-16 22:20:00,
2013-11-16 16:25:00,69.3,62.9,25.87,WNW,302,2.0,2.0,80,0.00,,,0.00,42,Wunderground v.1.15,2013-11-16 22:25:00,
2013-11-16 16:30:00,69.2,63.1,25.87,NNE,16,3.0,6.0,81,0.00,,,0.00,25,Wunderground v.1.15,2013-11-16 22:30:00,
2013-11-16 16:35:00,69.0,62.9,25.87,NE,45,3.0,3.0,81,0.00,,,0.00,18,Wunderground v.1.15,2013-11-16 22:35:00,
2013-11-16 16:45:00,68.8,63.1,25.87,North,5,2.0,2.0,82,0.00,,,0.00,12,Wunderground v.1.15,2013-11-16 22:45:00,
2013-11-16 16:55:00,68.7,63.0,25.87,NNE,12,3.0,3.0,82,0.00,,,0.00,14,Wunderground v.1.15,2013-11-16 22:55:00,
2013-11-16 17:05:00,68.3,62.9,25.88,East,89,3.0,7.0,83,0.00,,,0.00,7,Wunderground v.1.15,2013-11-16 23:05:00,
2013-11-16 17:10:00,68.3,62.9,25.88,NNE,23,3.0,3.0,83,0.00,,,0.00,5,Wunderground v.1.15,2013-11-16 23:10:00,
2013-11-16 17:15:00,68.2,62.8,25.88,SSE,161,3.0,3.0,83,0.00,,,0.00,0,Wunderground v.1.15,2013-11-16 23:15:00,
2013-11-16 17:25:00,68.2,62.8,25.88,ESE,117,3.0,8.0,83,0.00,,,0.00,0,Wunderground v.1.15,2013-11-16 23:25:00,
2013-11-16 17:35:00,68.0,63.0,25.89,ENE,77,3.0,3.0,84,0.00,,,0.00,0,Wunderground v.1.15,2013-11-16 23:35:00,
2013-11-16 17:45:00,68.0,63.0,25.89,ESE,105,3.0,3.0,84,0.00,,,0.00,0,Wunderground v.1.15,2013-11-16 23:45:00,
2013-11-16 17:50:00,67.8,62.8,25.89,NE,51,3.0,3.0,84,0.00,,,0.00,0,Wunderground v.1.15,2013-11-16 23:50:00,
2013-11-16 17:55:00,68.0,63.0,25.89,East,96,3.0,3.0,84,0.00,,,0.00,0,Wunderground v.1.15,2013-11-16 23:55:00,
2013-11-16 18:00:00,68.0,63.0,25.89,ESE,103,2.0,2.0,84,0.00,,,0.00,0,Wunderground v.1.15,2013-11-17 00:00:00,
2013-11-16 18:10:00,68.0,62.6,25.89,ENE,61,0.0,2.0,83,0.00,,,0.00,0,Wunderground v.1.15,2013-11-17 00:10:00,
2013-11-16 18:15:00,68.0,62.6,25.89,North,360,0.0,0.0,83,0.00,,,0.00,0,Wunderground v.1.15,2013-11-17 00:15:00,
2013-11-16 18:25:00,68.0,63.0,25.90,NW,312,0.0,1.0,84,0.00,,,0.00,0,Wunderground v.1.15,2013-11-17 00:25:00,
2013-11-16 18:30:00,68.2,62.8,25.90,NW,312,0.0,1.0,83,0.00,,,0.00,0,Wunderground v.1.15,2013-11-17 00:30:00,
2013-11-16 18:40:00,68.3,62.9,25.91,East,85,1.0,1.0,83,0.00,,,0.00,0,Wunderground v.1.15,2013-11-17 00:40:00,
2013-11-16 18:45:00,68.3,62.9,25.91,NNE,22,2.0,2.0,83,0.00,,,0.00,0,Wunderground v.1.15,2013-11-17 00:45:00,
2013-11-16 18:50:00,68.3,63.3,25.90,South,183,2.0,3.0,84,0.00,,,0.00,0,Wunderground v.1.15,2013-11-17 00:50:00,
2013-11-16 18:55:00,68.2,63.2,25.90,ENE,65,1.0,3.0,84,0.00,,,0.00,0,Wunderground v.1.15,2013-11-17 00:55:00,
2013-11-16 19:00:00,68.2,63.2,25.91,NNE,22,1.0,1.0,84,0.00,,,0.00,0,Wunderground v.1.15,2013-11-17 01:00:00,
2013-11-16 19:10:00,68.2,63.2,25.91,SE,128,1.0,5.0,84,0.00,,,0.00,0,Wunderground v.1.15,2013-11-17 01:10:00,
2013-11-16 19:20:00,68.2,63.2,25.91,NE,53,2.0,3.0,84,0.00,,,0.00,0,Wunderground v.1.15,2013-11-17 01:20:00,
2013-11-16 19:25:00,68.0,63.0,25.91,East,79,2.0,3.0,84,0.00,,,0.00,0,Wunderground v.1.15,2013-11-17 01:25:00,
2013-11-16 19:30:00,68.0,63.0,25.92,East,79,0.0,0.0,84,0.00,,,0.00,0,Wunderground v.1.15,2013-11-17 01:30:00,
2013-11-16 19:40:00,67.8,63.1,25.92,East,79,0.0,0.0,85,0.00,,,0.00,0,Wunderground v.1.15,2013-11-17 01:40:00,
2013-11-16 19:50:00,67.7,63.0,25.92,East,79,0.0,0.0,85,0.00,,,0.00,0,Wunderground v.1.15,2013-11-17 01:50:00,
2013-11-16 19:55:00,67.7,63.0,25.92,East,79,0.0,0.0,85,0.00,,,0.00,0,Wunderground v.1.15,2013-11-17 01:55:00,
2013-11-16 20:00:00,67.7,63.0,25.93,East,79,0.0,0.0,85,0.00,,,0.00,0,Wunderground v.1.15,2013-11-17 02:00:00,
2013-11-16 20:05:00,67.7,63.4,25.93,East,79,0.0,0.0,86,0.00,,,0.00,0,Wunderground v.1.15,2013-11-17 02:05:00,
2013-11-16 20:10:00,67.7,63.4,25.93,East,79,0.0,0.0,86,0.00,,,0.00,0,Wunderground v.1.15,2013-11-17 02:10:00,
2013-11-16 20:20:00,67.5,63.2,25.93,SSW,196,0.0,0.0,86,0.00,,,0.00,0,Wunderground v.1.15,2013-11-17 02:20:00,
2013-11-16 20:25:00,67.5,62.8,25.93,SSW,196,0.0,0.0,85,0.00,,,0.00,0,Wunderground v.1.15,2013-11-17 02:25:00,
2013-11-16 20:30:00,67.7,63.0,25.93,SSW,196,0.0,0.0,85,0.00,,,0.00,0,Wunderground v.1.15,2013-11-17 02:30:00,
2013-11-16 20:35:00,67.7,62.7,25.93,SSW,196,0.0,0.0,84,0.00,,,0.00,0,Wunderground v.1.15,2013-11-17 02:35:00,
2013-11-16 20:40:00,67.7,63.0,25.94,SSW,196,0.0,0.0,85,0.00,,,0.00,0,Wunderground v.1.15,2013-11-17 02:40:00,
2013-11-16 20:45:00,67.7,62.7,25.93,SSW,196,0.0,0.0,84,0.00,,,0.00,0,Wunderground v.1.15,2013-11-17 02:45:00,
2013-11-16 20:55:00,67.8,63.1,25.94,SSW,196,0.0,0.0,85,0.00,,,0.00,0,Wunderground v.1.15,2013-11-17 02:55:00,
2013-11-16 21:00:00,67.8,63.1,25.94,NNW,343,0.0,0.0,85,0.00,,,0.00,0,Wunderground v.1.15,2013-11-17 03:00:00,
2013-11-16 21:05:00,67.8,63.1,25.93,NNW,343,0.0,0.0,85,0.00,,,0.00,0,Wunderground v.1.15,2013-11-17 03:05:00,
2013-11-16 21:10:00,67.8,62.8,25.94,NNW,343,0.0,0.0,84,0.00,,,0.00,0,Wunderground v.1.15,2013-11-17 03:10:00,
2013-11-16 21:15:00,68.0,61.9,25.94,NNE,19,1.0,1.0,81,0.00,,,0.00,0,Wunderground v.1.15,2013-11-17 03:15:00,
2013-11-16 21:25:00,68.3,62.2,25.94,ENE,59,1.0,2.0,81,0.00,,,0.00,0,Wunderground v.1.15,2013-11-17 03:25:00,
2013-11-16 21:30:00,68.3,62.2,25.94,SE,127,0.0,0.0,81,0.00,,,0.00,0,Wunderground v.1.15,2013-11-17 03:30:00,
2013-11-16 21:35:00,68.3,62.2,25.94,SE,141,0.0,0.0,81,0.00,,,0.00,0,Wunderground v.1.15,2013-11-17 03:35:00,
2013-11-16 21:40:00,68.3,62.6,25.94,SE,141,0.0,0.0,82,0.00,,,0.00,0,Wunderground v.1.15,2013-11-17 03:40:00,
2013-11-16 21:50:00,68.3,62.2,25.94,ENE,57,0.0,0.0,81,0.00,,,0.00,0,Wunderground v.1.15,2013-11-17 03:50:00,
2013-11-16 21:55:00,68.3,61.9,25.94,North,360,1.0,3.0,80,0.00,,,0.00,0,Wunderground v.1.15,2013-11-17 03:55:00,
2013-11-16 22:00:00,68.7,62.3,25.94,East,88,1.0,1.0,80,0.00,,,0.00,0,Wunderground v.1.15,2013-11-17 04:00:00,
2013-11-16 22:10:00,68.8,62.4,25.93,NE,53,1.0,1.0,80,0.00,,,0.00,0,Wunderground v.1.15,2013-11-17 04:10:00,
2013-11-16 22:15:00,68.8,62.4,25.93,ESE,106,1.0,1.0,80,0.00,,,0.00,0,Wunderground v.1.15,2013-11-17 04:15:00,
2013-11-16 22:20:00,68.8,62.4,25.93,ESE,106,0.0,0.0,80,0.00,,,0.00,0,Wunderground v.1.15,2013-11-17 04:20:00,
2013-11-16 22:25:00,68.7,62.6,25.93,ESE,106,0.0,0.0,81,0.00,,,0.00,0,Wunderground v.1.15,2013-11-17 04:25:00,
2013-11-16 22:35:00,68.3,62.6,25.93,SSE,148,0.0,0.0,82,0.00,,,0.00,0,Wunderground v.1.15,2013-11-17 04:35:00,
2013-11-16 22:40:00,68.2,62.5,25.92,SSE,148,1.0,1.0,82,0.00,,,0.00,0,Wunderground v.1.15,2013-11-17 04:40:00,
2013-11-16 22:50:00,68.0,62.3,25.92,North,5,1.0,1.0,82,0.00,,,0.00,0,Wunderground v.1.15,2013-11-17 04:50:00,
2013-11-16 22:55:00,67.8,62.1,25.92,NNE,33,1.0,1.0,82,0.00,,,0.00,0,Wunderground v.1.15,2013-11-17 04:55:00,
2013-11-16 23:00:00,67.8,61.8,25.92,SE,130,1.0,4.0,81,0.00,,,0.00,0,Wunderground v.1.15,2013-11-17 05:00:00,
2013-11-16 23:05:00,67.8,62.1,25.92,SE,130,1.0,4.0,82,0.00,,,0.00,0,Wunderground v.1.15,2013-11-17 05:05:00,
2013-11-16 23:10:00,67.7,62.0,25.92,SE,130,0.0,0.0,82,0.00,,,0.00,0,Wunderground v.1.15,2013-11-17 05:10:00,
2013-11-16 23:15:00,67.7,62.3,25.92,SE,130,0.0,0.0,83,0.00,,,0.00,0,Wunderground v.1.15,2013-11-17 05:15:00,
2013-11-16 23:20:00,67.5,62.2,25.92,SSW,198,0.0,1.0,83,0.00,,,0.00,0,Wunderground v.1.15,2013-11-17 05:20:00,
2013-11-16 23:25:00,67.5,62.2,25.91,ESE,111,0.0,1.0,83,0.00,,,0.00,0,Wunderground v.1.15,2013-11-17 05:25:00,
2013-11-16 23:30:00,67.5,62.2,25.91,ESE,111,0.0,0.0,83,0.00,,,0.00,0,Wunderground v.1.15,2013-11-17 05:30:00,
2013-11-16 23:40:00,67.5,62.2,25.91,ESE,111,0.0,0.0,83,0.00,,,0.00,0,Wunderground v.1.15,2013-11-17 05:40:00,
2013-11-16 23:45:00,67.7,62.0,25.91,NNE,33,0.0,4.0,82,0.00,,,0.00,0,Wunderground v.1.15,2013-11-17 05:45:00,
2013-11-16 23:55:00,68.3,61.9,25.91,NE,40,2.0,2.0,80,0.00,,,0.00,0,Wunderground v.1.15,2013-11-17 05:55:00,